createdAt,value
2023-02-06T00:02:23.930Z,24.15
2023-02-06T00:04:51.495Z,25.70
2023-02-06T00:07:19.010Z,24.77
2023-02-06T00:09:46.540Z,25.75
2023-02-06T00:12:14.465Z,24.85
2023-02-06T00:14:43.306Z,24.35
2023-02-06T00:17:10.802Z,24.87
2023-02-06T00:19:38.380Z,20.00
2023-02-06T00:22:05.870Z,22.95
2023-02-06T00:24:33.439Z,22.92
2023-02-06T00:27:01.101Z,25.05
2023-02-06T00:29:28.651Z,22.40
2023-02-06T00:31:57.527Z,19.88
2023-02-06T00:34:25.446Z,22.00
2023-02-06T00:36:53.007Z,22.67
2023-02-06T00:39:20.806Z,21.20
2023-02-06T00:41:50.134Z,21.30
2023-02-06T00:44:18.521Z,21.55
2023-02-06T00:46:46.101Z,19.48
2023-02-06T00:49:15.199Z,19.45
2023-02-06T00:51:42.813Z,22.67
2023-02-06T00:54:10.610Z,20.80
2023-02-06T00:56:38.181Z,16.33
2023-02-06T00:59:05.809Z,20.13
2023-02-06T01:01:33.445Z,19.02
2023-02-06T01:04:01.761Z,20.10
2023-02-06T01:06:30.677Z,19.07
2023-02-06T01:08:58.203Z,20.10
2023-02-06T01:11:28.922Z,21.08
2023-02-06T01:13:56.620Z,20.67
2023-02-06T01:16:25.764Z,18.15
2023-02-06T01:18:54.052Z,20.97
2023-02-06T01:21:23.446Z,18.90
2023-02-06T01:23:54.756Z,18.63
2023-02-06T01:26:24.311Z,19.45
2023-02-06T01:28:51.904Z,17.08
2023-02-06T01:31:23.269Z,18.00
2023-02-06T01:33:52.161Z,19.83
2023-02-06T01:36:20.802Z,17.88
2023-02-06T01:38:49.270Z,16.75
2023-02-06T01:41:20.244Z,18.98
2023-02-06T01:44:07.180Z,16.03
2023-02-06T01:46:35.025Z,16.20
2023-02-06T01:49:03.835Z,19.75
2023-02-06T01:51:33.142Z,17.85
2023-02-06T01:54:05.429Z,14.65
2023-02-06T01:56:40.873Z,17.03
2023-02-06T01:59:08.439Z,15.73
2023-02-06T02:01:36.557Z,16.88
2023-02-06T02:04:06.537Z,19.30
2023-02-06T02:06:35.464Z,18.17
2023-02-06T02:09:04.653Z,17.73
2023-02-06T02:11:35.892Z,15.90
2023-02-06T02:14:16.046Z,14.00
2023-02-06T02:16:53.896Z,14.25
2023-02-06T02:19:59.634Z,16.48
2023-02-06T02:22:45.113Z,15.67
2023-02-06T02:25:43.564Z,14.70
2023-02-06T02:28:35.670Z,13.88
2023-02-06T02:31:28.642Z,15.32
2023-02-06T02:34:32.265Z,15.15
2023-02-06T02:37:11.152Z,15.67
2023-02-06T02:39:46.777Z,13.35
2023-02-06T02:42:24.062Z,15.40
2023-02-06T02:44:56.244Z,14.65
2023-02-06T02:47:29.559Z,13.57
2023-02-06T02:50:01.066Z,14.40
2023-02-06T02:52:30.680Z,12.13
2023-02-06T02:54:58.264Z,12.45
2023-02-06T02:57:30.397Z,11.82
2023-02-06T03:00:00.570Z,14.05
2023-02-06T03:02:35.858Z,15.50
2023-02-06T03:05:06.660Z,15.68
2023-02-06T03:07:46.198Z,14.77
2023-02-06T03:10:22.521Z,13.02
2023-02-06T03:12:56.613Z,14.32
2023-02-06T03:15:30.652Z,12.17
2023-02-06T03:18:03.290Z,17.33
2023-02-06T03:20:32.762Z,15.25
2023-02-06T03:23:03.823Z,12.73
2023-02-06T03:25:37.769Z,10.65
2023-02-06T03:28:11.739Z,12.77
2023-02-06T03:30:42.276Z,12.32
2023-02-06T03:33:14.386Z,10.38
2023-02-06T03:35:42.221Z,13.30
2023-02-06T03:38:11.507Z,14.15
2023-02-06T03:40:41.882Z,10.93
2023-02-06T03:43:12.869Z,15.07
2023-02-06T03:45:43.627Z,11.02
2023-02-06T03:48:15.727Z,12.20
2023-02-06T03:50:47.855Z,14.10
2023-02-06T03:53:18.289Z,13.67
2023-02-06T03:55:48.168Z,16.73
2023-02-06T03:58:15.968Z,15.18
2023-02-06T04:00:46.732Z,11.63
2023-02-06T04:03:16.182Z,11.35
2023-02-06T04:05:43.709Z,11.63
2023-02-06T04:08:11.261Z,16.02
2023-02-06T04:10:40.142Z,13.55
2023-02-06T04:13:07.650Z,23.65
2023-02-06T04:15:35.627Z,14.93
2023-02-06T04:18:04.536Z,11.50
2023-02-06T04:20:32.761Z,14.30
2023-02-06T04:23:00.425Z,12.00
2023-02-06T04:25:28.089Z,14.45
2023-02-06T04:27:57.008Z,20.08
2023-02-06T04:30:24.630Z,12.83
2023-02-06T04:32:52.419Z,14.20
2023-02-06T04:35:20.346Z,14.10
2023-02-06T04:37:47.845Z,14.77
2023-02-06T04:40:15.399Z,13.73
2023-02-06T04:42:42.913Z,14.13
2023-02-06T04:45:12.031Z,16.77
2023-02-06T04:47:40.097Z,19.33
2023-02-06T04:50:08.427Z,10.70
2023-02-06T04:52:35.945Z,14.43
2023-02-06T04:55:03.448Z,13.73
2023-02-06T04:57:30.967Z,13.55
2023-02-06T04:59:58.464Z,18.55
2023-02-06T05:02:27.406Z,12.20
2023-02-06T05:04:54.900Z,13.88
2023-02-06T05:07:22.512Z,10.13
2023-02-06T05:09:50.103Z,13.75
2023-02-06T05:12:17.617Z,14.27
2023-02-06T05:14:45.218Z,15.23
2023-02-06T05:17:12.726Z,16.23
2023-02-06T05:19:41.577Z,14.13
2023-02-06T05:22:09.330Z,13.52
2023-02-06T05:24:36.877Z,12.93
2023-02-06T05:27:04.989Z,11.55
2023-02-06T05:29:32.552Z,13.57
2023-02-06T05:32:00.104Z,16.87
2023-02-06T05:34:27.928Z,16.77
2023-02-06T05:36:56.851Z,13.07
2023-02-06T05:39:24.752Z,13.15
2023-02-06T05:41:52.286Z,10.55
2023-02-06T05:44:19.829Z,18.90
2023-02-06T05:46:48.502Z,13.60
2023-02-06T05:49:16.233Z,12.77
2023-02-06T05:51:43.835Z,17.88
2023-02-06T05:54:13.132Z,15.25
2023-02-06T05:56:40.646Z,10.17
2023-02-06T05:59:08.143Z,15.07
2023-02-06T06:01:35.688Z,14.63
2023-02-06T06:04:03.797Z,12.15
2023-02-06T06:06:31.538Z,11.95
2023-02-06T06:09:01.193Z,13.93
2023-02-06T06:11:30.545Z,12.45
2023-02-06T06:13:58.093Z,11.63
2023-02-06T06:16:25.898Z,11.10
2023-02-06T06:18:53.481Z,11.73
2023-02-06T06:21:20.969Z,12.17
2023-02-06T06:23:48.528Z,13.13
2023-02-06T06:26:16.312Z,14.30
2023-02-06T06:28:45.182Z,14.63
2023-02-06T06:31:13.300Z,11.95
2023-02-06T06:33:41.878Z,14.90
2023-02-06T06:36:12.900Z,14.90
2023-02-06T06:38:41.837Z,12.82
2023-02-06T06:41:09.329Z,12.32
2023-02-06T06:43:37.018Z,16.20
2023-02-06T06:46:06.373Z,17.37
2023-02-06T06:48:36.372Z,15.70
2023-02-06T06:51:03.952Z,17.05
2023-02-06T06:53:31.535Z,14.82
2023-02-06T06:56:03.551Z,15.93
2023-02-06T06:58:31.368Z,17.33
2023-02-06T07:00:58.941Z,11.43
2023-02-06T07:03:28.028Z,11.95
2023-02-06T07:05:55.541Z,15.80
2023-02-06T07:08:23.102Z,11.70
2023-02-06T07:10:50.724Z,14.37
2023-02-06T07:13:18.332Z,10.85
2023-02-06T07:15:45.876Z,14.90
2023-02-06T07:18:13.397Z,18.38
2023-02-06T07:20:42.301Z,11.32
2023-02-06T07:23:09.810Z,12.13
2023-02-06T07:25:37.532Z,15.35
2023-02-06T07:28:05.386Z,12.98
2023-02-06T07:30:32.979Z,14.63
2023-02-06T07:33:00.579Z,16.38
2023-02-06T07:35:28.225Z,15.10
2023-02-06T07:37:57.190Z,13.85
2023-02-06T07:40:26.249Z,15.55
2023-02-06T07:42:53.822Z,11.77
2023-02-06T07:45:26.870Z,13.18
2023-02-06T07:47:54.733Z,13.30
2023-02-06T07:50:22.261Z,19.58
2023-02-06T07:52:49.821Z,12.10
2023-02-06T07:55:18.850Z,13.95
2023-02-06T07:57:46.382Z,15.85
2023-02-06T08:00:14.947Z,17.87
2023-02-06T08:02:42.980Z,17.00
2023-02-06T08:05:10.489Z,16.02
2023-02-06T08:07:38.126Z,21.45
2023-02-06T08:10:06.435Z,16.85
2023-02-06T08:12:35.259Z,14.10
2023-02-06T08:15:03.725Z,17.92
2023-02-06T08:17:31.276Z,19.85
2023-02-06T08:19:58.773Z,14.88
2023-02-06T08:22:26.413Z,17.95
2023-02-06T08:24:54.046Z,22.57
2023-02-06T08:27:21.674Z,16.70
2023-02-06T08:29:51.613Z,15.00
2023-02-06T08:32:19.184Z,17.30
2023-02-06T08:34:46.769Z,25.63
2023-02-06T08:37:14.387Z,21.33
2023-02-06T08:39:42.057Z,22.60
2023-02-06T08:42:09.566Z,21.33
2023-02-06T08:44:37.297Z,24.95
2023-02-06T08:47:10.415Z,14.27
2023-02-06T08:49:38.707Z,18.87
2023-02-06T08:52:06.717Z,21.42
2023-02-06T08:54:36.334Z,21.58
2023-02-06T08:57:06.498Z,21.50
2023-02-06T08:59:34.793Z,20.52
2023-02-06T09:02:02.564Z,19.40
2023-02-06T09:04:34.510Z,26.90
2023-02-06T09:07:02.080Z,36.50
2023-02-06T09:09:29.622Z,18.38
2023-02-06T09:12:02.071Z,20.35
2023-02-06T09:14:29.781Z,20.00
2023-02-06T09:16:58.093Z,22.02
2023-02-06T09:19:26.128Z,21.70
2023-02-06T09:21:55.152Z,16.30
2023-02-06T09:24:22.826Z,18.52
2023-02-06T09:27:00.210Z,14.53
2023-02-06T09:29:31.308Z,16.70
2023-02-06T09:31:59.290Z,21.40
2023-02-06T09:34:27.970Z,15.63
2023-02-06T09:36:57.704Z,22.63
2023-02-06T09:39:25.710Z,17.93
2023-02-06T09:41:55.906Z,19.50
2023-02-06T09:44:29.024Z,18.67
2023-02-06T09:47:02.008Z,23.50
2023-02-06T09:49:32.691Z,22.50
2023-02-06T09:52:13.666Z,20.70
2023-02-06T09:54:52.106Z,21.92
2023-02-06T09:57:31.195Z,21.15
2023-02-06T10:00:02.011Z,19.40
2023-02-06T10:03:01.836Z,16.63
2023-02-06T10:05:40.686Z,18.83
2023-02-06T10:08:20.196Z,21.40
2023-02-06T10:10:51.639Z,17.33
2023-02-06T10:13:25.269Z,21.70
2023-02-06T10:15:56.527Z,18.63
2023-02-06T10:18:30.513Z,17.83
2023-02-06T10:21:01.642Z,17.83
2023-02-06T10:23:35.236Z,16.20
2023-02-06T10:26:12.265Z,13.27
2023-02-06T10:28:41.400Z,13.43
2023-02-06T10:31:40.377Z,12.37
2023-02-06T10:34:29.671Z,14.35
2023-02-06T10:37:11.270Z,16.15
2023-02-06T10:39:49.497Z,12.73
2023-02-06T10:42:24.513Z,16.40
2023-02-06T10:45:17.126Z,12.17
2023-02-06T10:47:54.218Z,13.85
2023-02-06T10:50:28.423Z,13.20
2023-02-06T10:52:59.581Z,12.32
2023-02-06T10:55:33.637Z,9.93
2023-02-06T10:58:07.766Z,15.13
2023-02-06T11:00:36.081Z,13.02
2023-02-06T11:03:08.485Z,12.68
2023-02-06T11:05:37.409Z,11.50
2023-02-06T11:08:14.710Z,12.02
2023-02-06T11:10:43.735Z,11.07
2023-02-06T11:13:14.821Z,12.93
2023-02-06T11:15:48.955Z,11.85
2023-02-06T11:18:20.362Z,15.13
2023-02-06T11:20:50.022Z,15.02
2023-02-06T11:23:19.800Z,23.93
2023-02-06T11:25:56.676Z,22.25
2023-02-06T11:28:25.105Z,22.08
2023-02-06T11:30:58.395Z,19.60
2023-02-06T11:33:41.814Z,21.15
2023-02-06T11:36:24.789Z,17.83
2023-02-06T11:38:58.037Z,17.45
2023-02-06T11:41:28.067Z,14.52
2023-02-06T11:44:02.330Z,18.73
2023-02-06T11:46:32.301Z,16.80
2023-02-06T11:49:06.122Z,13.77
2023-02-06T11:51:49.762Z,15.30
2023-02-06T11:54:23.632Z,15.18
2023-02-06T11:57:03.174Z,16.38
2023-02-06T11:59:34.322Z,13.95
2023-02-06T12:02:06.882Z,13.93
2023-02-06T12:04:38.675Z,15.10
2023-02-06T12:07:14.766Z,15.65
2023-02-06T12:09:42.486Z,12.93
2023-02-06T12:12:22.815Z,15.88
2023-02-06T12:14:55.125Z,13.37
2023-02-06T12:17:28.115Z,17.23
2023-02-06T12:20:02.151Z,17.65
2023-02-06T12:22:36.085Z,16.38
2023-02-06T12:25:05.418Z,14.68
2023-02-06T12:27:39.268Z,15.37
2023-02-06T12:30:17.823Z,13.82
2023-02-06T12:32:50.854Z,14.38
2023-02-06T12:35:24.552Z,14.93
2023-02-06T12:37:56.299Z,15.40
2023-02-06T12:40:39.946Z,15.13
2023-02-06T12:43:12.097Z,12.95
2023-02-06T12:45:49.788Z,13.50
2023-02-06T12:48:21.409Z,15.63
2023-02-06T12:51:05.589Z,11.60
2023-02-06T12:53:38.360Z,14.60
2023-02-06T12:56:14.359Z,14.65
2023-02-06T12:58:55.036Z,16.73
2023-02-06T13:01:38.088Z,14.00
2023-02-06T13:04:08.161Z,14.77
2023-02-06T13:06:44.772Z,15.10
2023-02-06T13:09:19.437Z,13.50
2023-02-06T13:11:47.093Z,14.75
2023-02-06T13:14:20.697Z,13.20
2023-02-06T13:16:58.112Z,14.77
2023-02-06T13:19:32.608Z,15.33
2023-02-06T13:22:35.028Z,16.92
2023-02-06T13:25:23.102Z,15.13
2023-02-06T13:27:50.778Z,13.25
2023-02-06T13:30:47.772Z,12.20
2023-02-06T13:33:17.388Z,12.63
2023-02-06T13:36:07.997Z,13.52
2023-02-06T13:38:42.242Z,14.82
2023-02-06T13:41:28.149Z,13.68
2023-02-06T13:43:59.027Z,13.55
2023-02-06T13:46:54.457Z,14.20
2023-02-06T13:49:44.415Z,11.45
2023-02-06T13:52:20.679Z,16.58
2023-02-06T13:55:03.815Z,13.63
2023-02-06T13:57:52.271Z,13.40
2023-02-06T14:00:24.309Z,15.60
2023-02-06T14:02:56.672Z,14.00
2023-02-06T14:05:31.769Z,12.88
2023-02-06T14:08:19.737Z,12.38
2023-02-06T14:11:34.706Z,17.05
2023-02-06T14:14:24.760Z,14.90
2023-02-06T14:17:02.654Z,12.95
2023-02-06T14:19:40.678Z,14.65
2023-02-06T14:22:19.153Z,14.05
2023-02-06T14:25:04.522Z,16.77
2023-02-06T14:27:46.585Z,11.00
2023-02-06T14:30:27.806Z,15.73
2023-02-06T14:33:08.096Z,11.40
2023-02-06T14:35:51.470Z,16.27
2023-02-06T14:38:43.542Z,13.90
2023-02-06T14:41:11.595Z,12.73
2023-02-06T14:43:44.028Z,12.48
2023-02-06T14:46:16.699Z,13.70
2023-02-06T14:48:47.903Z,10.82
2023-02-06T14:51:24.316Z,11.63
2023-02-06T14:53:54.352Z,12.97
2023-02-06T14:56:28.501Z,11.52
2023-02-06T14:58:56.328Z,13.52
2023-02-06T15:01:29.139Z,11.88
2023-02-06T15:04:11.245Z,11.43
2023-02-06T15:06:42.347Z,11.47
2023-02-06T15:09:24.824Z,11.73
2023-02-06T15:11:54.031Z,13.38
2023-02-06T15:14:24.556Z,17.95
2023-02-06T15:16:52.693Z,13.18
2023-02-06T15:19:22.772Z,14.43
2023-02-06T15:22:01.660Z,10.70
2023-02-06T15:24:43.359Z,11.27
2023-02-06T15:27:19.848Z,15.10
2023-02-06T15:29:50.034Z,12.68
2023-02-06T15:32:27.813Z,14.00
2023-02-06T15:34:55.635Z,12.80
2023-02-06T15:37:28.726Z,12.27
2023-02-06T15:40:00.591Z,13.75
2023-02-06T15:42:28.282Z,13.93
2023-02-06T15:44:55.969Z,14.97
2023-02-06T15:47:23.769Z,14.48
2023-02-06T15:49:53.206Z,13.40
2023-02-06T15:52:39.388Z,11.63
2023-02-06T15:55:07.259Z,11.82
2023-02-06T15:57:39.257Z,10.27
2023-02-06T16:00:15.503Z,11.82
2023-02-06T16:02:43.164Z,11.65
2023-02-06T16:05:24.909Z,13.73
2023-02-06T16:07:54.769Z,13.25
2023-02-06T16:10:25.896Z,12.53
2023-02-06T16:12:55.124Z,13.15
2023-02-06T16:15:29.458Z,13.10
2023-02-06T16:17:58.224Z,14.68
2023-02-06T16:20:32.302Z,15.88
2023-02-06T16:23:31.784Z,9.87
2023-02-06T16:26:08.506Z,15.57
2023-02-06T16:28:41.884Z,16.42
2023-02-06T16:31:13.763Z,15.40
2023-02-06T16:33:44.100Z,18.40
2023-02-06T16:36:14.161Z,15.63
2023-02-06T16:38:48.374Z,15.77
2023-02-06T16:41:25.958Z,13.98
2023-02-06T16:43:54.588Z,13.82
2023-02-06T16:46:22.442Z,15.05
2023-02-06T16:48:50.150Z,13.53
2023-02-06T16:51:19.674Z,12.70
2023-02-06T16:53:49.866Z,14.20
2023-02-06T16:56:18.950Z,14.43
2023-02-06T16:58:47.113Z,14.55
2023-02-06T17:01:21.872Z,15.77
2023-02-06T17:03:50.222Z,16.83
2023-02-06T17:06:21.113Z,15.00
2023-02-06T17:08:52.698Z,14.27
2023-02-06T17:11:20.494Z,27.65
2023-02-06T17:13:48.222Z,19.67
2023-02-06T17:16:19.646Z,23.00
2023-02-06T17:18:47.943Z,18.00
2023-02-06T17:21:18.049Z,16.23
2023-02-06T17:23:46.255Z,14.45
2023-02-06T17:26:17.659Z,12.80
2023-02-06T17:28:45.720Z,14.60
2023-02-06T17:31:13.531Z,16.17
2023-02-06T17:33:41.133Z,13.50
2023-02-06T17:36:17.197Z,17.20
2023-02-06T17:38:44.991Z,14.83
2023-02-06T17:41:12.746Z,15.50
2023-02-06T17:43:41.725Z,16.20
2023-02-06T17:46:11.805Z,16.15
2023-02-06T17:48:42.500Z,17.33
2023-02-06T17:51:11.028Z,21.77
2023-02-06T17:53:39.067Z,18.25
2023-02-06T17:56:07.294Z,16.55
2023-02-06T17:58:35.043Z,16.05
2023-02-06T18:01:03.964Z,16.15
2023-02-06T18:03:31.553Z,18.10
2023-02-06T18:05:59.641Z,20.27
2023-02-06T18:08:27.848Z,18.77
2023-02-06T18:10:55.985Z,18.13
2023-02-06T18:13:24.313Z,17.73
2023-02-06T18:15:52.941Z,18.87
2023-02-06T18:18:22.520Z,20.40
2023-02-06T18:20:50.273Z,17.85
2023-02-06T18:23:19.146Z,22.88
2023-02-06T18:25:46.991Z,26.05
2023-02-06T18:28:16.281Z,21.67
2023-02-06T18:30:43.949Z,20.65
2023-02-06T18:33:12.676Z,23.13
2023-02-06T18:35:44.237Z,20.40
2023-02-06T18:38:12.229Z,27.65
2023-02-06T18:40:40.957Z,29.73
2023-02-06T18:43:07.856Z,26.63
2023-02-06T18:45:38.185Z,23.00
2023-02-06T18:48:07.880Z,22.92
2023-02-06T18:50:36.512Z,22.50
2023-02-06T18:53:05.593Z,18.50
2023-02-06T18:55:34.799Z,22.50
2023-02-06T18:58:02.921Z,19.90
2023-02-06T19:00:30.606Z,25.60
2023-02-06T19:02:59.179Z,23.83
2023-02-06T19:05:28.879Z,20.63
2023-02-06T19:07:56.439Z,18.85
2023-02-06T19:10:25.791Z,19.30
2023-02-06T19:12:53.342Z,17.63
2023-02-06T19:15:21.115Z,19.10
2023-02-06T19:17:49.469Z,21.63
2023-02-06T19:20:17.336Z,18.45
2023-02-06T19:22:44.847Z,19.65
2023-02-06T19:25:14.546Z,19.73
2023-02-06T19:27:43.813Z,18.30
2023-02-06T19:30:13.532Z,18.47
2023-02-06T19:32:41.166Z,20.30
2023-02-06T19:35:09.155Z,19.10
2023-02-06T19:37:36.749Z,21.75
2023-02-06T19:40:04.571Z,17.67
2023-02-06T19:42:32.122Z,23.10
2023-02-06T19:45:01.051Z,20.92
2023-02-06T19:47:28.658Z,23.90
2023-02-06T19:49:56.207Z,23.00
2023-02-06T19:52:23.825Z,26.98
2023-02-06T19:54:51.409Z,30.33
2023-02-06T19:57:19.330Z,23.92
2023-02-06T19:59:46.948Z,28.63
2023-02-06T20:02:16.693Z,27.23
2023-02-06T20:04:45.127Z,36.45
2023-02-06T20:07:12.854Z,28.77
2023-02-06T20:09:41.769Z,33.35
2023-02-06T20:12:09.999Z,31.90
2023-02-06T20:14:37.583Z,35.92
2023-02-06T20:17:05.732Z,37.75
2023-02-06T20:19:34.681Z,34.40
2023-02-06T20:22:03.040Z,37.00
2023-02-06T20:24:32.457Z,35.80
2023-02-06T20:27:05.577Z,39.45
2023-02-06T20:29:35.691Z,32.63
2023-02-06T20:32:04.398Z,38.37
2023-02-06T20:34:32.178Z,32.30
2023-02-06T20:37:01.573Z,30.42
2023-02-06T20:39:30.244Z,32.30
2023-02-06T20:41:57.838Z,24.45
2023-02-06T20:44:26.180Z,22.70
2023-02-06T20:46:54.056Z,25.17
2023-02-06T20:49:23.814Z,21.48
2023-02-06T20:51:51.566Z,21.17
2023-02-06T20:54:21.511Z,20.13
2023-02-06T20:56:49.620Z,23.53
2023-02-06T20:59:19.507Z,19.58
2023-02-06T21:01:47.512Z,20.08
2023-02-06T21:04:16.573Z,21.52
2023-02-06T21:06:44.482Z,23.60
2023-02-06T21:09:12.740Z,28.43
2023-02-06T21:11:44.195Z,26.88
2023-02-06T21:14:13.054Z,28.30
2023-02-06T21:16:41.141Z,25.80
2023-02-06T21:19:11.376Z,29.95
2023-02-06T21:21:39.493Z,26.37
2023-02-06T21:24:08.534Z,30.67
2023-02-06T21:26:37.027Z,28.95
2023-02-06T21:29:07.668Z,27.77
2023-02-06T21:31:38.800Z,28.80
2023-02-06T21:34:09.020Z,27.03
2023-02-06T21:36:38.891Z,31.45
2023-02-06T21:39:07.696Z,28.45
2023-02-06T21:41:35.614Z,28.00
2023-02-06T21:44:03.375Z,28.25
2023-02-06T21:46:33.316Z,26.13
2023-02-06T21:49:00.984Z,24.92
2023-02-06T21:51:28.854Z,23.45
2023-02-06T21:53:56.912Z,25.60
2023-02-06T21:56:27.018Z,24.50
2023-02-06T21:58:54.669Z,27.17
2023-02-06T22:01:24.757Z,24.63
2023-02-06T22:03:54.247Z,26.52
2023-02-06T22:06:22.266Z,26.73
2023-02-06T22:08:52.439Z,25.08
2023-02-06T22:11:22.069Z,23.90
2023-02-06T22:13:50.569Z,27.45
2023-02-06T22:16:22.088Z,30.80
2023-02-06T22:18:49.787Z,23.77
2023-02-06T22:21:20.956Z,23.08
2023-02-06T22:23:49.953Z,23.70
2023-02-06T22:26:19.712Z,25.50
2023-02-06T22:28:47.503Z,25.15
2023-02-06T22:31:18.136Z,28.38
2023-02-06T22:33:46.031Z,25.77
2023-02-06T22:36:15.944Z,26.37
2023-02-06T22:38:46.644Z,26.95
2023-02-06T22:41:16.402Z,29.55
2023-02-06T22:43:45.676Z,27.30
2023-02-06T22:46:18.806Z,23.05
2023-02-06T22:48:46.429Z,23.33
2023-02-06T22:51:14.018Z,25.55
2023-02-06T22:53:42.346Z,27.27
2023-02-06T22:56:31.104Z,26.13
2023-02-06T22:59:00.561Z,27.02
2023-02-06T23:01:30.500Z,23.50
2023-02-06T23:03:58.738Z,24.17
2023-02-06T23:06:27.559Z,26.67
2023-02-06T23:08:56.346Z,23.77
2023-02-06T23:11:26.219Z,26.35
2023-02-06T23:13:54.862Z,27.30
2023-02-06T23:16:23.200Z,25.40
2023-02-06T23:18:51.635Z,24.08
2023-02-06T23:21:21.320Z,23.95
2023-02-06T23:23:49.342Z,25.73
2023-02-06T23:26:19.594Z,23.60
2023-02-06T23:28:48.560Z,24.42
2023-02-06T23:31:16.528Z,23.98
2023-02-06T23:33:44.219Z,23.58
2023-02-06T23:36:14.542Z,23.55
2023-02-06T23:38:43.209Z,21.87
2023-02-06T23:41:13.024Z,21.67
2023-02-06T23:43:40.823Z,25.88
2023-02-06T23:46:12.389Z,22.75
2023-02-06T23:48:40.663Z,23.52
2023-02-06T23:51:08.534Z,27.17
2023-02-06T23:53:36.089Z,23.95
2023-02-06T23:56:11.004Z,21.20
2023-02-06T23:58:38.613Z,24.50
